sensor_id;sensor_type;location;lat;lon;timestamp;P1;durP1;ratioP1;P2;durP2;ratioP2
58466;SDS011;44255;49.244;7.726;2023-04-28T03:31:49;8.25;;;5.40;;
58466;SDS011;44255;49.244;7.726;2023-04-28T03:34:14;10.00;;;5.63;;
58466;SDS011;44255;49.244;7.726;2023-04-28T03:36:40;7.97;;;5.07;;
58466;SDS011;44255;49.244;7.726;2023-04-28T03:39:05;11.73;;;5.20;;
58466;SDS011;44255;49.244;7.726;2023-04-28T03:41:30;7.03;;;4.83;;
58466;SDS011;44255;49.244;7.726;2023-04-28T03:43:55;6.27;;;5.10;;
58466;SDS011;44255;49.244;7.726;2023-04-28T03:46:21;11.23;;;4.77;;
58466;SDS011;44255;49.244;7.726;2023-04-28T03:48:46;8.43;;;5.40;;
58466;SDS011;44255;49.244;7.726;2023-04-28T03:51:11;7.97;;;4.80;;
58466;SDS011;44255;49.244;7.726;2023-04-28T03:53:36;8.27;;;5.43;;
58466;SDS011;44255;49.244;7.726;2023-04-28T03:56:02;7.77;;;5.50;;
58466;SDS011;44255;49.244;7.726;2023-04-28T03:58:27;8.23;;;5.33;;
58466;SDS011;44255;49.244;7.726;2023-04-28T04:00:53;7.13;;;5.13;;
58466;SDS011;44255;49.244;7.726;2023-04-28T04:03:18;8.53;;;5.10;;
58466;SDS011;44255;49.244;7.726;2023-04-28T04:05:45;8.65;;;5.65;;
58466;SDS011;44255;49.244;7.726;2023-04-28T04:08:11;10.10;;;5.68;;
58466;SDS011;44255;49.244;7.726;2023-04-28T04:10:36;11.43;;;6.27;;
58466;SDS011;44255;49.244;7.726;2023-04-28T04:13:01;9.73;;;5.53;;
58466;SDS011;44255;49.244;7.726;2023-04-28T04:15:26;7.33;;;4.93;;
58466;SDS011;44255;49.244;7.726;2023-04-28T04:17:52;10.18;;;5.13;;
58466;SDS011;44255;49.244;7.726;2023-04-28T04:20:17;8.33;;;5.00;;
58466;SDS011;44255;49.244;7.726;2023-04-28T04:22:42;6.67;;;5.40;;
58466;SDS011;44255;49.244;7.726;2023-04-28T04:25:08;8.83;;;5.23;;
58466;SDS011;44255;49.244;7.726;2023-04-28T04:27:33;9.23;;;5.87;;
58466;SDS011;44255;49.244;7.726;2023-04-28T04:29:58;8.43;;;5.03;;
58466;SDS011;44255;49.244;7.726;2023-04-28T04:32:24;7.63;;;5.53;;
58466;SDS011;44255;49.244;7.726;2023-04-28T04:34:49;9.13;;;5.33;;
58466;SDS011;44255;49.244;7.726;2023-04-28T04:37:14;9.67;;;6.00;;
58466;SDS011;44255;49.244;7.726;2023-04-28T04:39:39;6.50;;;5.60;;
58466;SDS011;44255;49.244;7.726;2023-04-28T04:42:05;9.00;;;5.10;;
58466;SDS011;44255;49.244;7.726;2023-04-28T04:44:30;13.20;;;6.20;;
58466;SDS011;44255;49.244;7.726;2023-04-28T04:46:55;10.37;;;5.40;;
58466;SDS011;44255;49.244;7.726;2023-04-28T04:49:20;8.47;;;5.50;;
58466;SDS011;44255;49.244;7.726;2023-04-28T04:51:46;8.27;;;5.90;;
58466;SDS011;44255;49.244;7.726;2023-04-28T04:54:11;8.70;;;5.73;;
58466;SDS011;44255;49.244;7.726;2023-04-28T04:56:36;9.77;;;5.93;;
58466;SDS011;44255;49.244;7.726;2023-04-28T04:59:01;6.77;;;5.53;;
58466;SDS011;44255;49.244;7.726;2023-04-28T05:01:27;15.77;;;8.43;;
58466;SDS011;44255;49.244;7.726;2023-04-28T05:03:52;8.67;;;5.90;;
58466;SDS011;44255;49.244;7.726;2023-04-28T05:06:17;8.60;;;6.30;;
58466;SDS011;44255;49.244;7.726;2023-04-28T05:08:42;9.83;;;5.60;;
58466;SDS011;44255;49.244;7.726;2023-04-28T05:11:08;6.47;;;5.57;;
58466;SDS011;44255;49.244;7.726;2023-04-28T05:13:33;8.70;;;5.57;;
58466;SDS011;44255;49.244;7.726;2023-04-28T05:15:58;6.90;;;6.00;;
58466;SDS011;44255;49.244;7.726;2023-04-28T05:18:23;8.73;;;6.53;;
58466;SDS011;44255;49.244;7.726;2023-04-28T05:20:49;9.27;;;6.75;;
58466;SDS011;44255;49.244;7.726;2023-04-28T05:23:14;8.60;;;5.97;;
58466;SDS011;44255;49.244;7.726;2023-04-28T05:25:40;7.90;;;6.05;;
58466;SDS011;44255;49.244;7.726;2023-04-28T05:28:08;8.60;;;7.10;;
58466;SDS011;44255;49.244;7.726;2023-04-28T05:30:34;8.35;;;6.25;;
58466;SDS011;44255;49.244;7.726;2023-04-28T05:32:59;9.10;;;6.47;;
58466;SDS011;44255;49.244;7.726;2023-04-28T05:35:25;13.53;;;8.77;;
58466;SDS011;44255;49.244;7.726;2023-04-28T05:37:50;11.55;;;7.97;;
58466;SDS011;44255;49.244;7.726;2023-04-28T05:40:16;9.90;;;7.40;;
58466;SDS011;44255;49.244;7.726;2023-04-28T05:42:41;10.23;;;6.77;;
58466;SDS011;44255;49.244;7.726;2023-04-28T05:45:06;9.13;;;6.97;;
58466;SDS011;44255;49.244;7.726;2023-04-28T05:47:32;12.32;;;7.18;;
58466;SDS011;44255;49.244;7.726;2023-04-28T05:49:57;9.27;;;6.93;;
58466;SDS011;44255;49.244;7.726;2023-04-28T05:52:23;10.33;;;6.13;;
58466;SDS011;44255;49.244;7.726;2023-04-28T05:54:48;9.47;;;5.53;;
58466;SDS011;44255;49.244;7.726;2023-04-28T05:57:13;9.43;;;5.80;;
58466;SDS011;44255;49.244;7.726;2023-04-28T05:59:39;8.45;;;6.40;;
58466;SDS011;44255;49.244;7.726;2023-04-28T06:02:04;8.87;;;6.27;;
58466;SDS011;44255;49.244;7.726;2023-04-28T06:04:30;8.88;;;5.72;;
58466;SDS011;44255;49.244;7.726;2023-04-28T06:06:55;9.87;;;5.87;;
58466;SDS011;44255;49.244;7.726;2023-04-28T06:09:21;7.47;;;5.43;;
58466;SDS011;44255;49.244;7.726;2023-04-28T06:11:46;7.43;;;5.30;;
58466;SDS011;44255;49.244;7.726;2023-04-28T06:14:11;6.57;;;5.33;;
58466;SDS011;44255;49.244;7.726;2023-04-28T06:16:37;6.67;;;5.37;;
58466;SDS011;44255;49.244;7.726;2023-04-28T06:19:19;7.47;;;6.30;;
58466;SDS011;44255;49.244;7.726;2023-04-28T06:21:44;6.10;;;5.47;;
58466;SDS011;44255;49.244;7.726;2023-04-28T06:24:11;7.55;;;4.93;;
58466;SDS011;44255;49.244;7.726;2023-04-28T06:26:41;7.45;;;5.63;;
58466;SDS011;44255;49.244;7.726;2023-04-28T06:29:09;7.75;;;6.32;;
58466;SDS011;44255;49.244;7.726;2023-04-28T06:31:35;6.30;;;4.53;;
58466;SDS011;44255;49.244;7.726;2023-04-28T06:34:00;8.60;;;4.53;;
58466;SDS011;44255;49.244;7.726;2023-04-28T06:36:26;5.23;;;4.13;;
58466;SDS011;44255;49.244;7.726;2023-04-28T06:39:06;5.50;;;4.30;;
58466;SDS011;44255;49.244;7.726;2023-04-28T06:41:32;5.65;;;4.75;;
58466;SDS011;44255;49.244;7.726;2023-04-28T06:43:58;7.45;;;6.43;;
58466;SDS011;44255;49.244;7.726;2023-04-28T06:46:24;8.18;;;7.00;;
58466;SDS011;44255;49.244;7.726;2023-04-28T06:48:58;9.10;;;7.53;;
58466;SDS011;44255;49.244;7.726;2023-04-28T06:51:23;11.77;;;8.80;;
58466;SDS011;44255;49.244;7.726;2023-04-28T06:53:48;10.37;;;6.20;;
58466;SDS011;44255;49.244;7.726;2023-04-28T06:56:17;4.93;;;4.43;;
58466;SDS011;44255;49.244;7.726;2023-04-28T06:58:42;5.93;;;3.80;;
58466;SDS011;44255;49.244;7.726;2023-04-28T07:01:08;4.93;;;3.97;;
58466;SDS011;44255;49.244;7.726;2023-04-28T07:03:33;4.97;;;3.53;;
58466;SDS011;44255;49.244;7.726;2023-04-28T07:05:59;6.22;;;5.00;;
58466;SDS011;44255;49.244;7.726;2023-04-28T07:08:25;8.38;;;5.00;;
58466;SDS011;44255;49.244;7.726;2023-04-28T07:10:50;3.92;;;3.50;;
58466;SDS011;44255;49.244;7.726;2023-04-28T07:13:18;3.83;;;3.47;;
58466;SDS011;44255;49.244;7.726;2023-04-28T07:16:17;4.65;;;3.70;;
58466;SDS011;44255;49.244;7.726;2023-04-28T07:18:43;5.15;;;3.70;;
58466;SDS011;44255;49.244;7.726;2023-04-28T07:21:08;4.90;;;4.10;;
58466;SDS011;44255;49.244;7.726;2023-04-28T07:23:33;4.00;;;3.60;;
58466;SDS011;44255;49.244;7.726;2023-04-28T07:25:59;3.97;;;3.55;;
58466;SDS011;44255;49.244;7.726;2023-04-28T07:28:24;5.18;;;3.85;;
58466;SDS011;44255;49.244;7.726;2023-04-28T07:30:50;4.38;;;3.40;;
58466;SDS011;44255;49.244;7.726;2023-04-28T07:33:15;3.53;;;3.23;;
58466;SDS011;44255;49.244;7.726;2023-04-28T07:35:41;3.10;;;2.80;;
58466;SDS011;44255;49.244;7.726;2023-04-28T07:38:06;3.35;;;3.05;;
58466;SDS011;44255;49.244;7.726;2023-04-28T07:40:32;4.30;;;3.47;;
58466;SDS011;44255;49.244;7.726;2023-04-28T07:42:57;3.70;;;3.40;;
58466;SDS011;44255;49.244;7.726;2023-04-28T07:45:22;4.63;;;3.60;;
58466;SDS011;44255;49.244;7.726;2023-04-28T07:47:47;4.13;;;3.20;;
58466;SDS011;44255;49.244;7.726;2023-04-28T07:50:13;3.97;;;3.30;;
58466;SDS011;44255;49.244;7.726;2023-04-28T07:52:38;5.03;;;3.80;;
58466;SDS011;44255;49.244;7.726;2023-04-28T07:55:03;3.77;;;3.30;;
58466;SDS011;44255;49.244;7.726;2023-04-28T07:57:29;4.75;;;3.33;;
58466;SDS011;44255;49.244;7.726;2023-04-28T07:59:54;5.53;;;4.13;;
58466;SDS011;44255;49.244;7.726;2023-04-28T08:02:20;7.20;;;5.93;;
58466;SDS011;44255;49.244;7.726;2023-04-28T08:04:45;6.20;;;4.37;;
58466;SDS011;44255;49.244;7.726;2023-04-28T08:07:11;6.70;;;4.20;;
58466;SDS011;44255;49.244;7.726;2023-04-28T08:09:36;5.90;;;4.75;;
58466;SDS011;44255;49.244;7.726;2023-04-28T08:12:02;4.88;;;4.07;;
58466;SDS011;44255;49.244;7.726;2023-04-28T08:14:27;4.80;;;4.10;;
58466;SDS011;44255;49.244;7.726;2023-04-28T08:16:53;6.90;;;4.65;;
58466;SDS011;44255;49.244;7.726;2023-04-28T08:19:18;10.40;;;6.67;;
58466;SDS011;44255;49.244;7.726;2023-04-28T08:21:44;7.07;;;5.70;;
58466;SDS011;44255;49.244;7.726;2023-04-28T08:24:09;5.00;;;3.93;;
58466;SDS011;44255;49.244;7.726;2023-04-28T08:26:35;3.83;;;3.50;;
58466;SDS011;44255;49.244;7.726;2023-04-28T08:29:01;4.20;;;3.80;;
58466;SDS011;44255;49.244;7.726;2023-04-28T08:31:26;4.37;;;3.97;;
58466;SDS011;44255;49.244;7.726;2023-04-28T08:33:51;4.90;;;4.13;;
58466;SDS011;44255;49.244;7.726;2023-04-28T08:36:17;5.93;;;4.40;;
58466;SDS011;44255;49.244;7.726;2023-04-28T08:38:43;4.75;;;4.25;;
58466;SDS011;44255;49.244;7.726;2023-04-28T08:41:09;5.30;;;4.32;;
58466;SDS011;44255;49.244;7.726;2023-04-28T08:43:35;5.28;;;4.53;;
58466;SDS011;44255;49.244;7.726;2023-04-28T08:46:03;5.25;;;4.45;;
58466;SDS011;44255;49.244;7.726;2023-04-28T08:48:30;4.97;;;4.47;;
58466;SDS011;44255;49.244;7.726;2023-04-28T08:51:02;4.70;;;4.20;;
58466;SDS011;44255;49.244;7.726;2023-04-28T08:53:30;6.05;;;4.90;;
58466;SDS011;44255;49.244;7.726;2023-04-28T08:55:58;6.55;;;5.32;;
58466;SDS011;44255;49.244;7.726;2023-04-28T09:00:51;5.70;;;5.10;;
58466;SDS011;44255;49.244;7.726;2023-04-28T09:03:17;6.82;;;6.13;;
58466;SDS011;44255;49.244;7.726;2023-04-28T09:05:42;6.90;;;6.17;;
58466;SDS011;44255;49.244;7.726;2023-04-28T09:08:08;7.03;;;6.27;;
58466;SDS011;44255;49.244;7.726;2023-04-28T09:10:35;7.50;;;6.72;;
58466;SDS011;44255;49.244;7.726;2023-04-28T09:15:31;8.48;;;5.90;;
58466;SDS011;44255;49.244;7.726;2023-04-28T09:18:01;6.68;;;5.85;;
58466;SDS011;44255;49.244;7.726;2023-04-28T09:20:28;7.35;;;6.05;;
58466;SDS011;44255;49.244;7.726;2023-04-28T09:22:55;7.55;;;5.88;;
58466;SDS011;44255;49.244;7.726;2023-04-28T09:27:47;2.55;;;2.20;;
58466;SDS011;44255;49.244;7.726;2023-04-28T09:30:13;3.40;;;3.10;;
58466;SDS011;44255;49.244;7.726;2023-04-28T09:32:39;3.35;;;3.05;;
58466;SDS011;44255;49.244;7.726;2023-04-28T09:35:04;3.97;;;3.40;;
58466;SDS011;44255;49.244;7.726;2023-04-28T09:37:31;3.72;;;3.40;;
58466;SDS011;44255;49.244;7.726;2023-04-28T09:40:02;2.92;;;2.60;;
58466;SDS011;44255;49.244;7.726;2023-04-28T09:42:41;2.58;;;2.38;;
58466;SDS011;44255;49.244;7.726;2023-04-28T09:45:10;3.25;;;2.95;;
58466;SDS011;44255;49.244;7.726;2023-04-28T09:47:41;3.20;;;2.78;;
58466;SDS011;44255;49.244;7.726;2023-04-28T09:50:09;2.85;;;2.55;;
58466;SDS011;44255;49.244;7.726;2023-04-28T09:52:42;2.78;;;2.50;;
58466;SDS011;44255;49.244;7.726;2023-04-28T09:55:09;3.05;;;2.40;;
58466;SDS011;44255;49.244;7.726;2023-04-28T09:57:36;2.60;;;2.40;;
58466;SDS011;44255;49.244;7.726;2023-04-28T10:00:04;4.15;;;2.35;;
58466;SDS011;44255;49.244;7.726;2023-04-28T10:02:31;2.65;;;2.10;;
58466;SDS011;44255;49.244;7.726;2023-04-28T10:04:58;3.92;;;2.20;;
58466;SDS011;44255;49.244;7.726;2023-04-28T10:07:24;3.00;;;1.80;;
58466;SDS011;44255;49.244;7.726;2023-04-28T10:09:50;2.28;;;1.77;;
58466;SDS011;44255;49.244;7.726;2023-04-28T10:12:16;1.60;;;1.50;;
58466;SDS011;44255;49.244;7.726;2023-04-28T10:14:42;1.50;;;1.40;;
58466;SDS011;44255;49.244;7.726;2023-04-28T10:17:08;2.85;;;1.65;;
58466;SDS011;44255;49.244;7.726;2023-04-28T10:19:34;2.35;;;1.30;;
58466;SDS011;44255;49.244;7.726;2023-04-28T10:22:14;2.08;;;1.80;;
58466;SDS011;44255;49.244;7.726;2023-04-28T10:27:39;2.15;;;1.90;;
58466;SDS011;44255;49.244;7.726;2023-04-28T10:30:20;1.88;;;1.67;;
58466;SDS011;44255;49.244;7.726;2023-04-28T10:32:47;3.25;;;1.70;;
58466;SDS011;44255;49.244;7.726;2023-04-28T10:40:36;2.40;;;2.20;;
58466;SDS011;44255;49.244;7.726;2023-04-28T10:43:06;2.15;;;1.95;;
58466;SDS011;44255;49.244;7.726;2023-04-28T10:48:17;2.70;;;2.28;;
58466;SDS011;44255;49.244;7.726;2023-04-28T10:56:14;1.70;;;1.60;;
58466;SDS011;44255;49.244;7.726;2023-04-28T10:58:50;2.10;;;1.90;;
58466;SDS011;44255;49.244;7.726;2023-04-28T11:06:31;3.17;;;2.15;;
58466;SDS011;44255;49.244;7.726;2023-04-28T11:11:39;1.52;;;1.40;;
58466;SDS011;44255;49.244;7.726;2023-04-28T11:16:49;1.80;;;1.70;;
58466;SDS011;44255;49.244;7.726;2023-04-28T11:19:27;3.42;;;2.50;;
58466;SDS011;44255;49.244;7.726;2023-04-28T11:21:55;3.72;;;2.28;;
58466;SDS011;44255;49.244;7.726;2023-04-28T11:24:24;9.52;;;5.50;;
58466;SDS011;44255;49.244;7.726;2023-04-28T11:26:51;2.03;;;1.70;;
58466;SDS011;44255;49.244;7.726;2023-04-28T11:31:49;2.00;;;1.80;;
58466;SDS011;44255;49.244;7.726;2023-04-28T11:34:17;1.77;;;1.60;;
58466;SDS011;44255;49.244;7.726;2023-04-28T11:36:44;1.80;;;1.65;;
58466;SDS011;44255;49.244;7.726;2023-04-28T11:39:10;2.28;;;1.65;;
58466;SDS011;44255;49.244;7.726;2023-04-28T11:41:41;3.42;;;1.85;;
58466;SDS011;44255;49.244;7.726;2023-04-28T11:44:10;2.28;;;1.60;;
58466;SDS011;44255;49.244;7.726;2023-04-28T11:46:43;1.90;;;1.80;;
58466;SDS011;44255;49.244;7.726;2023-04-28T11:49:19;1.52;;;1.42;;
58466;SDS011;44255;49.244;7.726;2023-04-28T11:51:45;2.35;;;1.58;;
58466;SDS011;44255;49.244;7.726;2023-04-28T11:54:12;3.00;;;2.00;;
58466;SDS011;44255;49.244;7.726;2023-04-28T11:59:09;3.10;;;1.80;;
58466;SDS011;44255;49.244;7.726;2023-04-28T12:01:48;3.03;;;2.05;;
58466;SDS011;44255;49.244;7.726;2023-04-28T12:09:38;1.50;;;1.40;;
58466;SDS011;44255;49.244;7.726;2023-04-28T12:12:08;1.60;;;1.50;;
58466;SDS011;44255;49.244;7.726;2023-04-28T12:14:55;1.70;;;1.40;;
58466;SDS011;44255;49.244;7.726;2023-04-28T12:17:29;2.65;;;1.25;;
58466;SDS011;44255;49.244;7.726;2023-04-28T12:19:55;2.78;;;1.80;;
58466;SDS011;44255;49.244;7.726;2023-04-28T12:22:22;1.52;;;1.30;;
58466;SDS011;44255;49.244;7.726;2023-04-28T12:27:27;1.50;;;1.40;;
58466;SDS011;44255;49.244;7.726;2023-04-28T12:29:53;2.22;;;1.65;;
58466;SDS011;44255;49.244;7.726;2023-04-28T12:32:35;3.22;;;1.40;;
58466;SDS011;44255;49.244;7.726;2023-04-28T12:35:01;2.10;;;1.20;;
58466;SDS011;44255;49.244;7.726;2023-04-28T12:37:29;2.03;;;1.77;;
58466;SDS011;44255;49.244;7.726;2023-04-28T12:39:54;1.55;;;1.35;;
58466;SDS011;44255;49.244;7.726;2023-04-28T12:42:19;2.20;;;1.43;;
58466;SDS011;44255;49.244;7.726;2023-04-28T12:44:46;2.67;;;1.52;;
58466;SDS011;44255;49.244;7.726;2023-04-28T12:47:12;2.60;;;1.50;;
58466;SDS011;44255;49.244;7.726;2023-04-28T12:49:37;4.30;;;1.90;;
58466;SDS011;44255;49.244;7.726;2023-04-28T12:52:03;3.22;;;1.88;;
58466;SDS011;44255;49.244;7.726;2023-04-28T12:54:29;4.68;;;2.13;;
58466;SDS011;44255;49.244;7.726;2023-04-28T12:56:55;6.20;;;2.90;;
58466;SDS011;44255;49.244;7.726;2023-04-28T12:59:20;1.83;;;1.48;;
58466;SDS011;44255;49.244;7.726;2023-04-28T13:01:46;0.85;;;0.85;;
58466;SDS011;44255;49.244;7.726;2023-04-28T13:04:12;2.13;;;1.20;;
58466;SDS011;44255;49.244;7.726;2023-04-28T13:06:37;1.57;;;1.00;;
58466;SDS011;44255;49.244;7.726;2023-04-28T13:09:04;1.25;;;0.85;;
58466;SDS011;44255;49.244;7.726;2023-04-28T13:11:30;2.08;;;1.30;;
58466;SDS011;44255;49.244;7.726;2023-04-28T13:13:55;1.23;;;1.05;;
58466;SDS011;44255;49.244;7.726;2023-04-28T13:16:21;2.30;;;1.00;;
58466;SDS011;44255;49.244;7.726;2023-04-28T13:18:49;2.03;;;1.67;;
58466;SDS011;44255;49.244;7.726;2023-04-28T13:21:14;3.15;;;1.13;;
58466;SDS011;44255;49.244;7.726;2023-04-28T13:23:40;2.42;;;1.40;;
58466;SDS011;44255;49.244;7.726;2023-04-28T13:26:06;2.88;;;1.60;;
58466;SDS011;44255;49.244;7.726;2023-04-28T13:28:32;3.30;;;1.13;;
58466;SDS011;44255;49.244;7.726;2023-04-28T13:30:57;1.33;;;1.10;;
58466;SDS011;44255;49.244;7.726;2023-04-28T13:33:22;2.63;;;1.50;;
58466;SDS011;44255;49.244;7.726;2023-04-28T13:35:47;1.67;;;1.47;;
58466;SDS011;44255;49.244;7.726;2023-04-28T13:38:13;4.03;;;2.05;;
58466;SDS011;44255;49.244;7.726;2023-04-28T13:40:39;1.95;;;1.40;;
58466;SDS011;44255;49.244;7.726;2023-04-28T13:43:06;2.00;;;1.42;;
58466;SDS011;44255;49.244;7.726;2023-04-28T13:45:31;1.43;;;1.00;;
58466;SDS011;44255;49.244;7.726;2023-04-28T13:47:56;1.30;;;1.10;;
58466;SDS011;44255;49.244;7.726;2023-04-28T13:50:22;3.30;;;1.60;;
58466;SDS011;44255;49.244;7.726;2023-04-28T13:52:47;3.40;;;1.70;;
58466;SDS011;44255;49.244;7.726;2023-04-28T13:55:12;4.00;;;1.43;;
58466;SDS011;44255;49.244;7.726;2023-04-28T13:57:37;4.43;;;0.95;;
58466;SDS011;44255;49.244;7.726;2023-04-28T14:00:04;1.80;;;0.90;;
58466;SDS011;44255;49.244;7.726;2023-04-28T14:02:29;2.60;;;0.95;;
58466;SDS011;44255;49.244;7.726;2023-04-28T14:04:55;0.50;;;0.50;;
58466;SDS011;44255;49.244;7.726;2023-04-28T14:07:21;0.65;;;0.63;;
58466;SDS011;44255;49.244;7.726;2023-04-28T14:09:46;1.93;;;0.70;;
58466;SDS011;44255;49.244;7.726;2023-04-28T14:12:13;2.33;;;0.70;;
58466;SDS011;44255;49.244;7.726;2023-04-28T14:14:39;2.42;;;0.80;;
58466;SDS011;44255;49.244;7.726;2023-04-28T14:17:05;2.08;;;1.20;;
58466;SDS011;44255;49.244;7.726;2023-04-28T14:19:30;1.20;;;0.87;;
58466;SDS011;44255;49.244;7.726;2023-04-28T14:21:55;0.67;;;0.67;;
58466;SDS011;44255;49.244;7.726;2023-04-28T14:24:21;1.58;;;1.30;;
58466;SDS011;44255;49.244;7.726;2023-04-28T14:26:47;1.02;;;0.90;;
58466;SDS011;44255;49.244;7.726;2023-04-28T14:29:13;1.42;;;0.68;;
58466;SDS011;44255;49.244;7.726;2023-04-28T14:31:38;2.90;;;0.65;;
58466;SDS011;44255;49.244;7.726;2023-04-28T14:34:04;1.30;;;0.77;;
58466;SDS011;44255;49.244;7.726;2023-04-28T14:36:29;0.93;;;0.80;;
58466;SDS011;44255;49.244;7.726;2023-04-28T14:38:56;1.38;;;1.10;;
58466;SDS011;44255;49.244;7.726;2023-04-28T14:41:22;0.93;;;0.60;;
58466;SDS011;44255;49.244;7.726;2023-04-28T14:43:47;1.40;;;0.50;;
58466;SDS011;44255;49.244;7.726;2023-04-28T14:46:13;0.93;;;0.50;;
58466;SDS011;44255;49.244;7.726;2023-04-28T14:48:38;0.90;;;0.80;;
58466;SDS011;44255;49.244;7.726;2023-04-28T14:51:03;2.13;;;0.60;;
58466;SDS011;44255;49.244;7.726;2023-04-28T14:53:29;4.90;;;3.28;;
58466;SDS011;44255;49.244;7.726;2023-04-28T14:55:55;3.20;;;1.85;;
58466;SDS011;44255;49.244;7.726;2023-04-28T14:58:22;2.88;;;2.00;;
58466;SDS011;44255;49.244;7.726;2023-04-28T15:00:48;0.70;;;0.70;;
58466;SDS011;44255;49.244;7.726;2023-04-28T15:03:13;1.27;;;0.60;;
58466;SDS011;44255;49.244;7.726;2023-04-28T15:05:39;0.93;;;0.60;;
58466;SDS011;44255;49.244;7.726;2023-04-28T15:08:04;2.33;;;0.90;;
58466;SDS011;44255;49.244;7.726;2023-04-28T15:10:31;1.47;;;0.60;;
58466;SDS011;44255;49.244;7.726;2023-04-28T15:13:02;1.00;;;0.82;;
58466;SDS011;44255;49.244;7.726;2023-04-28T15:15:28;0.80;;;0.70;;
58466;SDS011;44255;49.244;7.726;2023-04-28T15:17:53;1.17;;;0.70;;
58466;SDS011;44255;49.244;7.726;2023-04-28T15:20:24;3.28;;;0.60;;
58466;SDS011;44255;49.244;7.726;2023-04-28T15:22:50;3.30;;;1.20;;
58466;SDS011;44255;49.244;7.726;2023-04-28T15:25:15;1.60;;;0.80;;
58466;SDS011;44255;49.244;7.726;2023-04-28T15:27:40;0.97;;;0.50;;
58466;SDS011;44255;49.244;7.726;2023-04-28T15:30:06;1.60;;;0.63;;
58466;SDS011;44255;49.244;7.726;2023-04-28T15:32:32;1.70;;;0.98;;
58466;SDS011;44255;49.244;7.726;2023-04-28T15:34:57;1.93;;;0.70;;
58466;SDS011;44255;49.244;7.726;2023-04-28T15:40:05;1.15;;;0.57;;
58466;SDS011;44255;49.244;7.726;2023-04-28T15:42:32;1.73;;;1.00;;
58466;SDS011;44255;49.244;7.726;2023-04-28T15:44:58;7.20;;;4.30;;
58466;SDS011;44255;49.244;7.726;2023-04-28T15:47:23;1.85;;;1.67;;
58466;SDS011;44255;49.244;7.726;2023-04-28T15:49:49;3.13;;;1.10;;
58466;SDS011;44255;49.244;7.726;2023-04-28T15:52:15;1.65;;;1.10;;
58466;SDS011;44255;49.244;7.726;2023-04-28T15:54:41;0.45;;;0.40;;
58466;SDS011;44255;49.244;7.726;2023-04-28T15:57:06;11.45;;;5.00;;
58466;SDS011;44255;49.244;7.726;2023-04-28T15:59:32;1.35;;;0.70;;
58466;SDS011;44255;49.244;7.726;2023-04-28T16:01:57;5.63;;;3.23;;
58466;SDS011;44255;49.244;7.726;2023-04-28T16:04:22;0.97;;;0.50;;
58466;SDS011;44255;49.244;7.726;2023-04-28T16:06:48;0.70;;;0.40;;
58466;SDS011;44255;49.244;7.726;2023-04-28T16:09:17;4.20;;;2.20;;
58466;SDS011;44255;49.244;7.726;2023-04-28T16:11:42;3.17;;;1.95;;
58466;SDS011;44255;49.244;7.726;2023-04-28T16:14:07;3.37;;;1.83;;
58466;SDS011;44255;49.244;7.726;2023-04-28T16:16:33;1.30;;;0.90;;
58466;SDS011;44255;49.244;7.726;2023-04-28T16:18:58;1.50;;;0.50;;
58466;SDS011;44255;49.244;7.726;2023-04-28T16:21:23;4.60;;;3.07;;
58466;SDS011;44255;49.244;7.726;2023-04-28T16:23:49;3.65;;;1.50;;
58466;SDS011;44255;49.244;7.726;2023-04-28T16:26:16;3.92;;;0.55;;
58466;SDS011;44255;49.244;7.726;2023-04-28T16:28:41;2.05;;;1.25;;
58466;SDS011;44255;49.244;7.726;2023-04-28T16:31:08;4.67;;;1.00;;
58466;SDS011;44255;49.244;7.726;2023-04-28T16:33:35;2.55;;;0.70;;
58466;SDS011;44255;49.244;7.726;2023-04-28T16:36:00;1.27;;;0.52;;
58466;SDS011;44255;49.244;7.726;2023-04-28T16:38:26;1.60;;;0.90;;
58466;SDS011;44255;49.244;7.726;2023-04-28T16:40:51;3.40;;;1.00;;
58466;SDS011;44255;49.244;7.726;2023-04-28T16:43:16;1.50;;;1.00;;
58466;SDS011;44255;49.244;7.726;2023-04-28T16:45:42;1.05;;;0.60;;
58466;SDS011;44255;49.244;7.726;2023-04-28T16:48:07;2.80;;;0.80;;
58466;SDS011;44255;49.244;7.726;2023-04-28T16:50:32;0.83;;;0.63;;
58466;SDS011;44255;49.244;7.726;2023-04-28T16:52:58;2.27;;;0.80;;
58466;SDS011;44255;49.244;7.726;2023-04-28T16:55:23;0.97;;;0.70;;
58466;SDS011;44255;49.244;7.726;2023-04-28T16:57:49;1.88;;;0.90;;
58466;SDS011;44255;49.244;7.726;2023-04-28T17:00:14;2.92;;;1.13;;
58466;SDS011;44255;49.244;7.726;2023-04-28T17:02:40;1.27;;;0.90;;
58466;SDS011;44255;49.244;7.726;2023-04-28T17:05:05;1.85;;;0.90;;
58466;SDS011;44255;49.244;7.726;2023-04-28T17:07:31;5.30;;;1.00;;
58466;SDS011;44255;49.244;7.726;2023-04-28T17:09:56;6.77;;;1.50;;
58466;SDS011;44255;49.244;7.726;2023-04-28T17:12:22;5.83;;;1.10;;
58466;SDS011;44255;49.244;7.726;2023-04-28T17:14:47;5.83;;;1.20;;
58466;SDS011;44255;49.244;7.726;2023-04-28T17:17:14;5.25;;;1.00;;
58466;SDS011;44255;49.244;7.726;2023-04-28T17:19:40;2.70;;;1.03;;
58466;SDS011;44255;49.244;7.726;2023-04-28T17:22:06;5.53;;;1.30;;
58466;SDS011;44255;49.244;7.726;2023-04-28T17:24:31;3.75;;;1.30;;
58466;SDS011;44255;49.244;7.726;2023-04-28T17:26:57;3.13;;;1.00;;
58466;SDS011;44255;49.244;7.726;2023-04-28T17:29:22;3.28;;;1.00;;
58466;SDS011;44255;49.244;7.726;2023-04-28T17:31:48;4.85;;;1.08;;
58466;SDS011;44255;49.244;7.726;2023-04-28T17:34:13;6.93;;;1.33;;
58466;SDS011;44255;49.244;7.726;2023-04-28T17:36:39;6.43;;;1.42;;
58466;SDS011;44255;49.244;7.726;2023-04-28T17:39:05;5.32;;;1.23;;
58466;SDS011;44255;49.244;7.726;2023-04-28T17:41:30;2.28;;;1.13;;
58466;SDS011;44255;49.244;7.726;2023-04-28T17:43:56;3.77;;;1.00;;
58466;SDS011;44255;49.244;7.726;2023-04-28T17:46:21;5.93;;;1.03;;
58466;SDS011;44255;49.244;7.726;2023-04-28T17:48:46;6.43;;;1.80;;
58466;SDS011;44255;49.244;7.726;2023-04-28T17:51:11;5.53;;;1.40;;
58466;SDS011;44255;49.244;7.726;2023-04-28T17:53:37;3.33;;;1.00;;
58466;SDS011;44255;49.244;7.726;2023-04-28T17:56:03;5.50;;;1.60;;
58466;SDS011;44255;49.244;7.726;2023-04-28T17:58:28;7.32;;;1.67;;
58466;SDS011;44255;49.244;7.726;2023-04-28T18:01:02;3.70;;;1.40;;
58466;SDS011;44255;49.244;7.726;2023-04-28T18:03:29;6.90;;;2.13;;
58466;SDS011;44255;49.244;7.726;2023-04-28T18:05:56;7.00;;;1.90;;
58466;SDS011;44255;49.244;7.726;2023-04-28T18:08:21;9.70;;;1.20;;
58466;SDS011;44255;49.244;7.726;2023-04-28T18:10:46;8.43;;;1.63;;
58466;SDS011;44255;49.244;7.726;2023-04-28T18:13:12;2.13;;;1.27;;
58466;SDS011;44255;49.244;7.726;2023-04-28T18:15:37;5.33;;;1.10;;
58466;SDS011;44255;49.244;7.726;2023-04-28T18:18:02;8.70;;;4.77;;
58466;SDS011;44255;49.244;7.726;2023-04-28T18:20:27;11.20;;;4.53;;
58466;SDS011;44255;49.244;7.726;2023-04-28T18:22:53;11.73;;;4.60;;
58466;SDS011;44255;49.244;7.726;2023-04-28T18:25:18;6.23;;;3.17;;
58466;SDS011;44255;49.244;7.726;2023-04-28T18:27:44;7.55;;;4.07;;
58466;SDS011;44255;49.244;7.726;2023-04-28T18:30:09;14.30;;;7.57;;
58466;SDS011;44255;49.244;7.726;2023-04-28T18:32:35;15.30;;;12.57;;
58466;SDS011;44255;49.244;7.726;2023-04-28T18:35:00;14.10;;;8.90;;
58466;SDS011;44255;49.244;7.726;2023-04-28T18:37:25;16.07;;;8.63;;
58466;SDS011;44255;49.244;7.726;2023-04-28T18:39:55;18.75;;;12.82;;
58466;SDS011;44255;49.244;7.726;2023-04-28T18:42:21;16.40;;;12.10;;
58466;SDS011;44255;49.244;7.726;2023-04-28T18:44:50;14.30;;;9.93;;
58466;SDS011;44255;49.244;7.726;2023-04-28T18:47:16;13.52;;;8.75;;
58466;SDS011;44255;49.244;7.726;2023-04-28T18:49:42;12.43;;;4.40;;
58466;SDS011;44255;49.244;7.726;2023-04-28T18:52:07;10.97;;;4.73;;
58466;SDS011;44255;49.244;7.726;2023-04-28T18:54:33;12.00;;;3.33;;
58466;SDS011;44255;49.244;7.726;2023-04-28T18:56:58;10.75;;;3.78;;
58466;SDS011;44255;49.244;7.726;2023-04-28T18:59:24;10.27;;;4.40;;
58466;SDS011;44255;49.244;7.726;2023-04-28T19:04:15;6.65;;;1.48;;